Time;durP1;ratioP1;P1;durP2;ratioP2;P2;SDS_P1;SDS_P2;PMS_P1;PMS_P2;Temp;Humidity;BMP_temperature;BMP_pressure;BME280_temperature;BME280_humidity;BME280_pressure;Samples;Min_cycle;Max_cycle;Signal;HPM_P1;HPM_P2
2023/04/30 00:00:43;;;;;;;12.30;8.70;;;;;;;;;;5014700;28;20128;-87
2023/04/30 00:03:10;;;;;;;12.85;9.15;;;;;;;;;;5015772;28;20046;-88
2023/04/30 00:05:37;;;;;;;11.65;9.30;;;;;;;;;;5014903;28;20041;-90
2023/04/30 00:08:04;;;;;;;13.20;9.65;;;;;;;;;;5014404;28;20058;-91
2023/04/30 00:10:32;;;;;;;14.20;12.05;;;;;;;;;;5014585;28;20046;-90
2023/04/30 00:12:59;;;;;;;12.30;10.98;;;;;;;;;;5015262;28;20054;-90
2023/04/30 00:15:26;;;;;;;12.63;11.27;;;;;;;;;;5015529;28;20074;-90
2023/04/30 00:17:53;;;;;;;12.32;10.93;;;;;;;;;;5014373;28;20068;-90
2023/04/30 00:20:21;;;;;;;11.93;10.75;;;;;;;;;;5014423;28;20054;-90
2023/04/30 00:22:48;;;;;;;13.95;11.02;;;;;;;;;;5015315;28;20056;-90
2023/04/30 00:25:15;;;;;;;13.48;10.85;;;;;;;;;;5015384;28;20057;-90
2023/04/30 00:27:42;;;;;;;12.18;10.90;;;;;;;;;;5014309;28;20542;-90
2023/04/30 00:30:10;;;;;;;13.18;10.38;;;;;;;;;;5014412;28;20054;-90
2023/04/30 00:32:37;;;;;;;11.60;10.32;;;;;;;;;;5013980;28;20046;-90
2023/04/30 00:35:05;;;;;;;16.63;10.15;;;;;;;;;;5015038;28;20054;-90
2023/04/30 00:37:32;;;;;;;10.65;9.55;;;;;;;;;;5014126;28;20053;-89
2023/04/30 00:39:59;;;;;;;11.77;9.65;;;;;;;;;;5013736;28;20505;-90
2023/04/30 00:42:26;;;;;;;12.68;9.02;;;;;;;;;;5014915;28;20483;-90
2023/04/30 00:44:53;;;;;;;10.80;9.50;;;;;;;;;;5013878;28;20041;-90
2023/04/30 00:47:21;;;;;;;10.65;8.95;;;;;;;;;;5013902;28;20064;-90
2023/04/30 00:49:48;;;;;;;11.45;9.25;;;;;;;;;;5013508;28;20054;-90
2023/04/30 00:52:15;;;;;;;15.50;11.57;;;;;;;;;;5013724;28;20053;-90
2023/04/30 00:54:42;;;;;;;15.10;10.50;;;;;;;;;;5013704;28;20054;-90
2023/04/30 00:57:12;;;;;;;14.60;10.60;;;;;;;;;;5014978;28;20050;-90
2023/04/30 00:59:41;;;;;;;12.50;10.38;;;;;;;;;;5027974;28;20504;-89
2023/04/30 01:02:09;;;;;;;14.95;10.23;;;;;;;;;;5013752;28;20042;-90
2023/04/30 01:04:36;;;;;;;14.27;10.13;;;;;;;;;;5013483;28;20050;-90
2023/04/30 01:07:04;;;;;;;14.07;9.45;;;;;;;;;;5013504;28;20057;-90
2023/04/30 01:09:31;;;;;;;10.63;9.52;;;;;;;;;;5013658;28;20064;-90
2023/04/30 01:12:09;;;;;;;14.90;9.68;;;;;;;;;;5014406;28;20045;-90
2023/04/30 01:14:56;;;;;;;14.52;9.52;;;;;;;;;;5013752;28;20136;-90
2023/04/30 01:17:41;;;;;;;11.45;10.18;;;;;;;;;;5013306;28;20062;-90
2023/04/30 01:20:10;;;;;;;11.70;9.45;;;;;;;;;;5013700;28;20410;-90
2023/04/30 01:22:51;;;;;;;9.88;8.65;;;;;;;;;;5013008;28;20598;-89
2023/04/30 01:25:37;;;;;;;10.80;9.68;;;;;;;;;;5013064;28;20058;-87
2023/04/30 01:28:05;;;;;;;13.60;9.85;;;;;;;;;;5013267;28;20132;-90
2023/04/30 01:30:33;;;;;;;13.27;9.43;;;;;;;;;;5014418;28;20056;-90
2023/04/30 01:33:00;;;;;;;12.98;9.70;;;;;;;;;;5013209;28;20050;-90
2023/04/30 01:35:48;;;;;;;17.15;9.88;;;;;;;;;;5012992;28;20046;-90
2023/04/30 01:38:27;;;;;;;16.25;11.65;;;;;;;;;;5013403;28;20136;-90
2023/04/30 01:40:58;;;;;;;11.88;10.60;;;;;;;;;;5014188;28;20050;-90
2023/04/30 01:43:33;;;;;;;11.82;10.45;;;;;;;;;;5013194;28;20462;-90
2023/04/30 01:46:15;;;;;;;13.05;11.40;;;;;;;;;;5012997;28;20071;-90
2023/04/30 01:48:45;;;;;;;17.40;12.88;;;;;;;;;;5012896;28;20465;-89
2023/04/30 01:51:32;;;;;;;14.32;12.73;;;;;;;;;;5012902;28;20085;-90
2023/04/30 01:54:05;;;;;;;19.25;13.15;;;;;;;;;;5013564;28;20056;-90
2023/04/30 01:56:40;;;;;;;21.83;14.52;;;;;;;;;;5012794;28;20501;-90
2023/04/30 01:59:08;;;;;;;21.92;14.45;;;;;;;;;;5013090;28;20121;-90
2023/04/30 02:01:35;;;;;;;22.85;14.75;;;;;;;;;;5013699;28;20046;-90
2023/04/30 02:04:03;;;;;;;21.30;15.77;;;;;;;;;;5013672;28;20077;-90
2023/04/30 02:06:31;;;;;;;20.92;15.10;;;;;;;;;;5012462;28;20554;-90
2023/04/30 02:09:04;;;;;;;23.73;15.95;;;;;;;;;;5013629;28;20556;-90
2023/04/30 02:11:31;;;;;;;19.13;14.15;;;;;;;;;;5014307;28;20042;-90
2023/04/30 02:13:58;;;;;;;14.05;12.43;;;;;;;;;;5028459;28;20446;-90
2023/04/30 02:16:26;;;;;;;20.15;13.55;;;;;;;;;;5013631;28;20108;-90
2023/04/30 02:18:53;;;;;;;17.30;12.57;;;;;;;;;;5012392;28;20049;-90
2023/04/30 02:21:20;;;;;;;17.80;11.93;;;;;;;;;;5013190;28;20427;-90
2023/04/30 02:23:47;;;;;;;13.35;11.63;;;;;;;;;;5012365;28;20483;-90
2023/04/30 02:26:14;;;;;;;18.40;12.48;;;;;;;;;;5012483;28;20513;-89
2023/04/30 02:28:41;;;;;;;14.95;11.70;;;;;;;;;;5012412;28;20053;-89
2023/04/30 02:31:11;;;;;;;18.60;11.65;;;;;;;;;;5012523;28;20092;-89
2023/04/30 02:33:39;;;;;;;20.10;12.93;;;;;;;;;;5012114;28;20050;-89
2023/04/30 02:36:06;;;;;;;16.10;13.70;;;;;;;;;;5013466;28;20076;-90
2023/04/30 02:38:33;;;;;;;19.88;13.02;;;;;;;;;;5013332;28;20045;-90
2023/04/30 02:41:01;;;;;;;18.00;13.48;;;;;;;;;;5012414;28;20141;-90
2023/04/30 02:43:28;;;;;;;21.40;15.80;;;;;;;;;;5012601;28;20050;-89
2023/04/30 02:45:55;;;;;;;20.15;15.82;;;;;;;;;;5011932;28;20038;-90
2023/04/30 02:48:22;;;;;;;20.92;16.48;;;;;;;;;;5012496;28;20062;-89
2023/04/30 02:50:50;;;;;;;21.88;16.95;;;;;;;;;;5012971;28;20406;-89
2023/04/30 02:53:17;;;;;;;22.92;16.90;;;;;;;;;;5013224;28;20408;-87
2023/04/30 02:55:45;;;;;;;18.60;15.40;;;;;;;;;;5013120;28;20418;-87
2023/04/30 02:58:12;;;;;;;21.50;15.15;;;;;;;;;;5012204;28;20054;-87
2023/04/30 03:00:39;;;;;;;20.73;15.23;;;;;;;;;;5011957;28;20046;-89
2023/04/30 03:03:06;;;;;;;19.30;14.95;;;;;;;;;;5012003;28;20459;-89
2023/04/30 03:05:34;;;;;;;16.45;13.52;;;;;;;;;;5012010;28;20054;-89
2023/04/30 03:08:01;;;;;;;17.00;13.05;;;;;;;;;;5012962;28;20049;-89
2023/04/30 03:10:28;;;;;;;23.63;13.63;;;;;;;;;;5012291;28;20060;-89
2023/04/30 03:12:56;;;;;;;15.95;13.50;;;;;;;;;;5011987;28;20050;-89
2023/04/30 03:15:23;;;;;;;17.75;13.68;;;;;;;;;;5011696;28;20141;-89
2023/04/30 03:17:50;;;;;;;21.35;13.90;;;;;;;;;;5013038;28;20120;-88
2023/04/30 03:20:17;;;;;;;18.48;13.07;;;;;;;;;;5012312;28;20485;-89
2023/04/30 03:22:45;;;;;;;18.75;13.75;;;;;;;;;;5014345;28;20133;-89
2023/04/30 03:25:12;;;;;;;20.10;14.68;;;;;;;;;;5017319;28;20430;-89
2023/04/30 03:27:39;;;;;;;22.25;15.75;;;;;;;;;;5029875;28;20038;-89
2023/04/30 03:30:07;;;;;;;21.48;16.67;;;;;;;;;;5016802;28;20050;-90
2023/04/30 03:32:34;;;;;;;20.08;15.48;;;;;;;;;;5016253;28;20502;-89
2023/04/30 03:35:01;;;;;;;24.80;14.88;;;;;;;;;;5015283;28;20475;-89
2023/04/30 03:37:28;;;;;;;17.48;15.02;;;;;;;;;;5015242;28;20046;-89
2023/04/30 03:39:55;;;;;;;22.35;16.20;;;;;;;;;;5015053;28;20054;-89
2023/04/30 03:42:23;;;;;;;17.02;15.15;;;;;;;;;;5016123;28;20061;-89
2023/04/30 03:44:50;;;;;;;22.33;15.13;;;;;;;;;;5015050;28;20046;-89
2023/04/30 03:47:17;;;;;;;21.88;15.90;;;;;;;;;;5016148;28;20050;-90
2023/04/30 03:49:44;;;;;;;21.40;14.50;;;;;;;;;;5015181;28;20085;-89
2023/04/30 03:52:12;;;;;;;20.20;15.13;;;;;;;;;;5015147;28;20050;-89
2023/04/30 03:54:39;;;;;;;20.33;15.45;;;;;;;;;;5014549;28;20096;-90
2023/04/30 03:57:06;;;;;;;24.02;14.98;;;;;;;;;;5015758;28;20107;-89
2023/04/30 03:59:34;;;;;;;25.17;17.70;;;;;;;;;;5014830;28;20446;-89
2023/04/30 04:02:01;;;;;;;24.67;18.63;;;;;;;;;;5015868;28;20458;-90
2023/04/30 04:04:28;;;;;;;20.17;15.43;;;;;;;;;;5015192;28;20071;-90
2023/04/30 04:06:56;;;;;;;21.40;15.50;;;;;;;;;;5014596;28;20050;-89
2023/04/30 04:09:23;;;;;;;21.02;15.68;;;;;;;;;;5014782;28;20057;-90
2023/04/30 04:11:50;;;;;;;17.45;14.27;;;;;;;;;;5014468;28;20504;-88
2023/04/30 04:14:17;;;;;;;25.98;15.52;;;;;;;;;;5014321;28;20400;-89
2023/04/30 04:16:45;;;;;;;20.23;15.05;;;;;;;;;;5014673;28;20061;-89
2023/04/30 04:19:13;;;;;;;21.55;15.05;;;;;;;;;;5015546;28;20049;-90
2023/04/30 04:21:40;;;;;;;23.58;15.38;;;;;;;;;;5014028;28;20061;-89
2023/04/30 04:24:07;;;;;;;23.25;16.23;;;;;;;;;;5015500;28;20417;-89
2023/04/30 04:26:35;;;;;;;18.17;14.05;;;;;;;;;;5014279;28;20072;-89
2023/04/30 04:29:04;;;;;;;18.50;14.40;;;;;;;;;;5015273;28;20072;-90
2023/04/30 04:31:32;;;;;;;20.77;14.63;;;;;;;;;;5014262;28;20483;-90
2023/04/30 04:33:59;;;;;;;19.00;14.10;;;;;;;;;;5013230;28;20120;-90
2023/04/30 04:36:27;;;;;;;20.83;15.10;;;;;;;;;;5014168;28;20046;-90
2023/04/30 04:38:56;;;;;;;18.15;14.70;;;;;;;;;;5015192;28;20501;-89
2023/04/30 04:41:24;;;;;;;18.70;14.93;;;;;;;;;;5020626;28;20053;-89
2023/04/30 04:43:51;;;;;;;17.10;14.13;;;;;;;;;;5022259;28;20050;-90
2023/04/30 04:46:19;;;;;;;14.95;13.30;;;;;;;;;;5014927;28;20050;-90
2023/04/30 04:48:47;;;;;;;17.95;13.45;;;;;;;;;;5013804;28;20085;-90
2023/04/30 04:51:14;;;;;;;17.00;14.45;;;;;;;;;;5013685;28;20042;-90
2023/04/30 04:53:41;;;;;;;18.70;14.32;;;;;;;;;;5013668;28;20502;-90
2023/04/30 04:56:08;;;;;;;19.50;14.13;;;;;;;;;;5013407;28;20053;-90
2023/04/30 04:58:35;;;;;;;22.05;13.50;;;;;;;;;;5013858;28;20081;-90
2023/04/30 05:01:04;;;;;;;14.98;13.23;;;;;;;;;;5013666;28;20530;-90
2023/04/30 05:03:32;;;;;;;18.70;14.25;;;;;;;;;;5013557;28;20042;-90
2023/04/30 05:05:59;;;;;;;13.88;12.35;;;;;;;;;;5014697;28;20056;-90
2023/04/30 05:08:26;;;;;;;14.07;11.90;;;;;;;;;;5014541;28;20046;-90
2023/04/30 05:10:54;;;;;;;15.27;11.57;;;;;;;;;;5013620;28;20108;-90
2023/04/30 05:13:21;;;;;;;17.15;12.23;;;;;;;;;;5013476;28;20057;-90
2023/04/30 05:15:50;;;;;;;17.48;12.25;;;;;;;;;;5014214;28;20056;-90
2023/04/30 05:18:18;;;;;;;15.45;12.43;;;;;;;;;;5013352;28;20046;-90
2023/04/30 05:20:45;;;;;;;14.80;11.52;;;;;;;;;;5013324;28;20046;-90
2023/04/30 05:23:12;;;;;;;15.38;11.65;;;;;;;;;;5014218;28;20054;-88
2023/04/30 05:25:39;;;;;;;14.82;11.38;;;;;;;;;;5013120;28;20490;-90
2023/04/30 05:28:07;;;;;;;15.00;10.65;;;;;;;;;;5013466;28;20050;-90
2023/04/30 05:30:34;;;;;;;13.68;10.88;;;;;;;;;;5012821;28;20053;-91
2023/04/30 05:33:01;;;;;;;17.88;11.18;;;;;;;;;;5013137;28;20050;-91
2023/04/30 05:35:29;;;;;;;16.50;10.80;;;;;;;;;;5013046;28;20050;-91
2023/04/30 05:37:56;;;;;;;15.00;8.65;;;;;;;;;;5013356;28;20050;-89
2023/04/30 05:40:23;;;;;;;8.52;7.60;;;;;;;;;;5013407;28;20054;-89
2023/04/30 05:42:51;;;;;;;14.07;9.55;;;;;;;;;;5014000;28;20042;-89
2023/04/30 05:45:18;;;;;;;13.32;10.57;;;;;;;;;;5012725;28;20053;-88
2023/04/30 05:47:45;;;;;;;12.02;8.18;;;;;;;;;;5012904;28;20042;-89
2023/04/30 05:50:12;;;;;;;11.50;7.93;;;;;;;;;;5013733;28;20532;-88
2023/04/30 05:52:40;;;;;;;12.30;8.25;;;;;;;;;;5012917;28;20136;-89
2023/04/30 05:55:08;;;;;;;11.45;6.95;;;;;;;;;;5013159;28;20041;-89
2023/04/30 05:57:35;;;;;;;20.25;8.75;;;;;;;;;;5016465;28;20046;-90
2023/04/30 06:00:05;;;;;;;12.40;7.10;;;;;;;;;;5013120;28;20061;-88
2023/04/30 06:02:32;;;;;;;11.55;7.53;;;;;;;;;;5013050;28;20526;-89
2023/04/30 06:05:01;;;;;;;18.48;14.93;;;;;;;;;;5012880;28;20045;-90
2023/04/30 06:07:29;;;;;;;8.25;6.25;;;;;;;;;;5012737;28;20465;-89
2023/04/30 06:09:57;;;;;;;7.82;5.93;;;;;;;;;;5012909;28;20053;-89
2023/04/30 06:12:25;;;;;;;6.15;5.10;;;;;;;;;;5012657;28;20088;-88
2023/04/30 06:14:52;;;;;;;5.78;5.28;;;;;;;;;;5012718;28;20532;-88
2023/04/30 06:17:19;;;;;;;6.10;4.88;;;;;;;;;;5012867;28;20414;-89
2023/04/30 06:19:46;;;;;;;5.50;5.03;;;;;;;;;;5013943;28;20078;-88
2023/04/30 06:22:14;;;;;;;5.57;5.07;;;;;;;;;;5013523;28;20058;-89
2023/04/30 06:24:41;;;;;;;5.35;4.90;;;;;;;;;;5012771;28;20050;-88
2023/04/30 06:27:08;;;;;;;5.65;5.00;;;;;;;;;;5012818;28;20076;-89
2023/04/30 06:29:35;;;;;;;6.75;5.18;;;;;;;;;;5011222;28;20431;-88
2023/04/30 06:32:02;;;;;;;6.22;4.80;;;;;;;;;;5012113;28;20178;-87
2023/04/30 06:34:32;;;;;;;5.45;4.70;;;;;;;;;;5013249;28;20050;-88
2023/04/30 06:36:59;;;;;;;7.03;5.15;;;;;;;;;;5011761;28;20133;-89
2023/04/30 06:39:26;;;;;;;6.60;5.55;;;;;;;;;;5011832;28;20042;-88
2023/04/30 06:41:54;;;;;;;5.32;4.82;;;;;;;;;;5012902;28;20060;-88
2023/04/30 06:44:21;;;;;;;6.72;6.00;;;;;;;;;;5012031;28;20407;-88
2023/04/30 06:46:48;;;;;;;7.15;5.70;;;;;;;;;;5012801;28;20049;-89
2023/04/30 06:49:15;;;;;;;7.22;5.35;;;;;;;;;;5012362;28;20064;-89
2023/04/30 06:51:43;;;;;;;6.53;4.90;;;;;;;;;;5011879;28;20133;-89
2023/04/30 06:54:11;;;;;;;7.78;5.00;;;;;;;;;;5011759;28;20045;-89
2023/04/30 06:56:38;;;;;;;8.32;4.95;;;;;;;;;;5012287;28;20061;-89
2023/04/30 06:59:05;;;;;;;5.00;4.55;;;;;;;;;;5015430;28;20133;-89
2023/04/30 07:01:32;;;;;;;4.45;4.05;;;;;;;;;;5015459;28;20483;-90
2023/04/30 07:04:00;;;;;;;4.22;3.83;;;;;;;;;;5016534;28;20050;-89
2023/04/30 07:06:28;;;;;;;3.95;3.00;;;;;;;;;;5015247;28;20092;-89
2023/04/30 07:08:56;;;;;;;3.38;3.08;;;;;;;;;;5015234;28;20057;-89
2023/04/30 07:11:23;;;;;;;4.85;2.88;;;;;;;;;;5016935;28;20058;-89
2023/04/30 07:13:50;;;;;;;5.22;3.25;;;;;;;;;;5016358;28;20132;-89
2023/04/30 07:16:17;;;;;;;4.82;2.72;;;;;;;;;;5016278;28;20054;-89
2023/04/30 07:18:47;;;;;;;4.68;3.22;;;;;;;;;;5015871;28;20065;-90
2023/04/30 07:21:15;;;;;;;4.45;3.47;;;;;;;;;;5015094;28;20053;-90
2023/04/30 07:23:44;;;;;;;3.80;3.42;;;;;;;;;;5015039;28;20050;-89
2023/04/30 07:26:11;;;;;;;7.18;3.58;;;;;;;;;;5015280;28;20112;-88
2023/04/30 07:28:38;;;;;;;6.15;3.70;;;;;;;;;;5014981;28;20052;-89
2023/04/30 07:31:06;;;;;;;5.82;3.72;;;;;;;;;;5014893;28;20050;-89
2023/04/30 07:33:33;;;;;;;4.18;3.33;;;;;;;;;;5014490;28;20046;-88
2023/04/30 07:36:01;;;;;;;3.67;3.38;;;;;;;;;;5015780;28;20054;-88
2023/04/30 07:38:28;;;;;;;4.78;4.00;;;;;;;;;;5014592;28;20046;-88
2023/04/30 07:40:56;;;;;;;4.90;3.00;;;;;;;;;;5014748;28;20104;-89
2023/04/30 07:43:23;;;;;;;3.60;3.05;;;;;;;;;;5015736;28;20054;-89
2023/04/30 07:45:52;;;;;;;3.50;2.80;;;;;;;;;;5015681;28;20421;-88
2023/04/30 07:48:20;;;;;;;3.70;2.90;;;;;;;;;;5015214;28;20048;-89
2023/04/30 07:50:48;;;;;;;3.38;2.70;;;;;;;;;;5014266;28;20054;-88
2023/04/30 07:53:18;;;;;;;3.45;2.72;;;;;;;;;;5014515;28;20046;-88
2023/04/30 07:55:46;;;;;;;2.97;2.65;;;;;;;;;;5015276;28;20050;-89
2023/04/30 07:58:13;;;;;;;4.03;2.40;;;;;;;;;;5014333;28;20057;-90
2023/04/30 08:00:40;;;;;;;5.15;2.33;;;;;;;;;;5015151;28;20057;-89
2023/04/30 08:03:08;;;;;;;3.53;2.45;;;;;;;;;;5015352;28;20084;-90
2023/04/30 08:05:38;;;;;;;3.33;2.30;;;;;;;;;;5014297;28;20050;-90
2023/04/30 08:08:05;;;;;;;3.67;2.28;;;;;;;;;;5014348;28;20570;-89
2023/04/30 08:10:33;;;;;;;2.90;2.08;;;;;;;;;;5013995;28;20046;-88
2023/04/30 08:13:00;;;;;;;2.90;2.35;;;;;;;;;;5014039;28;20517;-89
2023/04/30 08:15:27;;;;;;;1.88;1.77;;;;;;;;;;5013733;28;20054;-89
2023/04/30 08:17:56;;;;;;;2.28;1.77;;;;;;;;;;5013433;28;20054;-89
2023/04/30 08:20:23;;;;;;;4.45;2.67;;;;;;;;;;5014133;28;20426;-90
2023/04/30 08:22:50;;;;;;;3.47;2.63;;;;;;;;;;5013613;28;20049;-89
2023/04/30 08:25:18;;;;;;;2.88;2.28;;;;;;;;;;5013887;28;20053;-89
2023/04/30 08:27:45;;;;;;;2.88;2.65;;;;;;;;;;5015643;28;20061;-89
2023/04/30 08:30:12;;;;;;;5.32;2.42;;;;;;;;;;5014114;28;20080;-90
2023/04/30 08:32:40;;;;;;;2.53;2.22;;;;;;;;;;5013781;28;20050;-89
2023/04/30 08:35:08;;;;;;;3.90;2.25;;;;;;;;;;5013664;28;20054;-89
2023/04/30 08:37:35;;;;;;;3.20;1.83;;;;;;;;;;5013463;28;20054;-88
2023/04/30 08:40:03;;;;;;;4.47;2.17;;;;;;;;;;5013759;28;20046;-89
2023/04/30 08:42:32;;;;;;;3.95;1.90;;;;;;;;;;5013630;28;20054;-89
2023/04/30 08:45:00;;;;;;;2.42;2.22;;;;;;;;;;5012598;28;20096;-89
2023/04/30 08:47:27;;;;;;;2.75;1.90;;;;;;;;;;5013059;28;20072;-90
2023/04/30 08:49:55;;;;;;;4.65;1.95;;;;;;;;;;5013329;28;20081;-89
2023/04/30 08:52:22;;;;;;;2.20;1.70;;;;;;;;;;5013449;28;20053;-89
2023/04/30 08:54:50;;;;;;;3.25;2.25;;;;;;;;;;5013183;28;20121;-90
2023/04/30 08:57:18;;;;;;;3.42;2.15;;;;;;;;;;5013312;28;20053;-89
2023/04/30 08:59:48;;;;;;;2.38;2.10;;;;;;;;;;5012947;28;20045;-89
2023/04/30 09:02:15;;;;;;;3.13;1.98;;;;;;;;;;5013142;28;20053;-87
2023/04/30 09:04:42;;;;;;;2.33;2.03;;;;;;;;;;5012963;28;20050;-89
2023/04/30 09:07:12;;;;;;;4.00;2.10;;;;;;;;;;5012912;28;20056;-86
2023/04/30 09:09:39;;;;;;;2.13;1.85;;;;;;;;;;5013099;28;20060;-89
2023/04/30 09:12:16;;;;;;;3.30;1.77;;;;;;;;;;5013045;28;20061;-89
2023/04/30 09:15:02;;;;;;;2.33;1.92;;;;;;;;;;5012794;28;20084;-88
2023/04/30 09:17:30;;;;;;;2.28;1.80;;;;;;;;;;5012845;28;20045;-89
2023/04/30 09:20:07;;;;;;;2.90;1.70;;;;;;;;;;5012360;28;20054;-88
2023/04/30 09:22:35;;;;;;;5.05;1.63;;;;;;;;;;5012380;28;20060;-88
2023/04/30 09:25:02;;;;;;;4.20;1.75;;;;;;;;;;5012926;28;20579;-89
2023/04/30 09:27:30;;;;;;;3.92;1.85;;;;;;;;;;5013028;28;20144;-89
2023/04/30 09:29:57;;;;;;;3.72;1.80;;;;;;;;;;5014536;28;20380;-89
2023/04/30 09:32:24;;;;;;;3.13;1.60;;;;;;;;;;5013198;28;20068;-88
2023/04/30 09:34:52;;;;;;;2.42;1.50;;;;;;;;;;5016318;28;20046;-90
2023/04/30 09:37:19;;;;;;;2.92;1.40;;;;;;;;;;5014284;28;20069;-89
2023/04/30 09:39:55;;;;;;;2.45;1.35;;;;;;;;;;5013803;28;20046;-91
2023/04/30 09:42:23;;;;;;;5.13;1.85;;;;;;;;;;5015969;28;20054;-89
2023/04/30 09:44:53;;;;;;;4.25;1.60;;;;;;;;;;5014368;28;20050;-91
2023/04/30 09:47:21;;;;;;;3.22;1.48;;;;;;;;;;5013040;28;20145;-87
2023/04/30 09:49:53;;;;;;;3.80;1.27;;;;;;;;;;5012642;28;20046;-89
2023/04/30 09:52:20;;;;;;;2.30;1.58;;;;;;;;;;5013010;28;20108;-89
2023/04/30 09:54:48;;;;;;;3.53;1.58;;;;;;;;;;5012955;28;20053;-90
2023/04/30 09:57:15;;;;;;;3.10;1.30;;;;;;;;;;5012466;28;20497;-89
2023/04/30 09:59:44;;;;;;;2.08;1.15;;;;;;;;;;5013171;28;20552;-90
2023/04/30 10:02:13;;;;;;;1.35;1.17;;;;;;;;;;5013460;28;20112;-90
2023/04/30 10:04:44;;;;;;;3.55;1.25;;;;;;;;;;5012973;28;20532;-90
2023/04/30 10:07:13;;;;;;;2.03;1.38;;;;;;;;;;5013054;28;20061;-88
2023/04/30 10:09:50;;;;;;;3.35;1.38;;;;;;;;;;5012771;28;20061;-90
2023/04/30 10:12:21;;;;;;;1.23;0.93;;;;;;;;;;5012397;28;20061;-88
2023/04/30 10:14:56;;;;;;;1.45;1.00;;;;;;;;;;5012154;28;20065;-88
2023/04/30 10:17:27;;;;;;;3.75;1.23;;;;;;;;;;5012273;28;20066;-90
2023/04/30 10:19:56;;;;;;;1.45;1.00;;;;;;;;;;5012357;28;20058;-90
2023/04/30 10:22:23;;;;;;;1.10;1.00;;;;;;;;;;5011924;28;20062;-91
2023/04/30 10:24:52;;;;;;;4.53;1.42;;;;;;;;;;5012406;28;20045;-91
2023/04/30 10:27:20;;;;;;;2.05;1.20;;;;;;;;;;5012277;28;20046;-90
2023/04/30 10:29:47;;;;;;;2.90;1.05;;;;;;;;;;5012251;28;20475;-89
2023/04/30 10:32:15;;;;;;;2.75;1.10;;;;;;;;;;5013770;28;20060;-89
2023/04/30 10:34:50;;;;;;;2.50;1.00;;;;;;;;;;5016656;28;20065;-91
2023/04/30 10:37:23;;;;;;;3.95;1.50;;;;;;;;;;5016766;28;20054;-90
2023/04/30 10:39:51;;;;;;;0.88;0.80;;;;;;;;;;5017792;28;20528;-90
2023/04/30 10:42:18;;;;;;;2.40;0.98;;;;;;;;;;5016704;28;20556;-90
2023/04/30 10:44:47;;;;;;;4.13;1.00;;;;;;;;;;5016408;28;20076;-90
2023/04/30 10:47:18;;;;;;;3.45;3.10;;;;;;;;;;5016885;28;20050;-89
2023/04/30 10:49:48;;;;;;;6.43;3.55;;;;;;;;;;5016606;28;20053;-91
2023/04/30 10:52:26;;;;;;;3.75;1.20;;;;;;;;;;5017574;28;20573;-89
2023/04/30 10:54:54;;;;;;;16.15;8.18;;;;;;;;;;5016608;28;20050;-90
2023/04/30 10:57:21;;;;;;;47.10;21.08;;;;;;;;;;5023812;28;20045;-89
2023/04/30 10:59:52;;;;;;;42.28;17.60;;;;;;;;;;5017078;28;20414;-90
2023/04/30 11:02:20;;;;;;;35.45;12.88;;;;;;;;;;5016372;28;20405;-90
2023/04/30 11:05:10;;;;;;;4.00;2.60;;;;;;;;;;5016351;28;20453;-92
2023/04/30 11:07:37;;;;;;;18.98;9.65;;;;;;;;;;5016148;28;20417;-90
2023/04/30 11:10:08;;;;;;;64.40;34.70;;;;;;;;;;5016499;28;20057;-90
2023/04/30 11:12:40;;;;;;;5.45;2.88;;;;;;;;;;5016135;28;20049;-90
2023/04/30 11:15:07;;;;;;;94.22;51.90;;;;;;;;;;5015907;28;20418;-87
2023/04/30 11:17:34;;;;;;;42.38;18.33;;;;;;;;;;5016096;28;20160;-89
2023/04/30 11:20:02;;;;;;;46.25;19.38;;;;;;;;;;5017546;28;20054;-91
2023/04/30 11:22:34;;;;;;;41.83;17.67;;;;;;;;;;5016008;28;20054;-91
2023/04/30 11:25:06;;;;;;;28.65;11.63;;;;;;;;;;5016159;28;20049;-89
2023/04/30 11:27:33;;;;;;;3.25;1.23;;;;;;;;;;5016791;28;20124;-90
2023/04/30 11:30:01;;;;;;;1.42;1.00;;;;;;;;;;5015896;28;20490;-92
2023/04/30 11:32:33;;;;;;;13.60;5.43;;;;;;;;;;5015737;28;20132;-92
2023/04/30 11:35:03;;;;;;;19.50;6.95;;;;;;;;;;5016385;28;20081;-91
2023/04/30 11:37:31;;;;;;;54.55;18.38;;;;;;;;;;5015675;28;20053;-86
2023/04/30 11:40:00;;;;;;;8.02;3.40;;;;;;;;;;5018218;28;20069;-89
2023/04/30 11:42:29;;;;;;;60.72;18.05;;;;;;;;;;5018400;28;20049;-91
2023/04/30 11:45:06;;;;;;;116.78;33.10;;;;;;;;;;5015540;28;20409;-91
2023/04/30 11:47:40;;;;;;;4.68;1.77;;;;;;;;;;5016302;28;20054;-91
2023/04/30 11:50:08;;;;;;;59.25;19.25;;;;;;;;;;5017583;28;20050;-90
2023/04/30 11:52:35;;;;;;;25.30;9.18;;;;;;;;;;5015537;28;20388;-91
2023/04/30 11:55:14;;;;;;;1.95;1.55;;;;;;;;;;5015795;28;20054;-89
2023/04/30 11:57:43;;;;;;;5.55;2.90;;;;;;;;;;5015223;28;20487;-91
2023/04/30 12:00:14;;;;;;;1.58;0.70;;;;;;;;;;5014933;28;20041;-87
2023/04/30 12:02:46;;;;;;;1.80;1.60;;;;;;;;;;5015109;28;20052;-89
2023/04/30 12:05:14;;;;;;;5.07;0.98;;;;;;;;;;5014611;28;20053;-93
2023/04/30 12:07:55;;;;;;;3.78;1.83;;;;;;;;;;5014313;28;20130;-90
2023/04/30 12:10:24;;;;;;;8.48;4.05;;;;;;;;;;5016805;28;20182;-88
2023/04/30 12:12:53;;;;;;;4.50;1.92;;;;;;;;;;5016766;28;20054;-87
2023/04/30 12:15:25;;;;;;;2.55;1.30;;;;;;;;;;5014434;28;20076;-89
2023/04/30 12:17:56;;;;;;;3.22;2.40;;;;;;;;;;5014736;28;20050;-90
2023/04/30 12:20:24;;;;;;;3.85;1.58;;;;;;;;;;5014508;28;20058;-89
2023/04/30 12:22:52;;;;;;;8.07;4.90;;;;;;;;;;5014447;28;20566;-89
2023/04/30 12:25:20;;;;;;;25.58;13.75;;;;;;;;;;5014537;28;20072;-90
2023/04/30 12:27:58;;;;;;;7.32;3.47;;;;;;;;;;5014579;28;20050;-91
2023/04/30 12:30:26;;;;;;;4.82;3.42;;;;;;;;;;5014479;28;20046;-90
2023/04/30 12:32:56;;;;;;;2.10;1.20;;;;;;;;;;5014677;28;20398;-89
2023/04/30 12:35:23;;;;;;;4.47;1.95;;;;;;;;;;5014217;28;20046;-87
2023/04/30 12:37:52;;;;;;;10.55;5.82;;;;;;;;;;5013660;28;20136;-89
2023/04/30 12:40:20;;;;;;;2.60;0.90;;;;;;;;;;5014207;28;20056;-89
2023/04/30 12:42:47;;;;;;;2.20;1.05;;;;;;;;;;5014106;28;20088;-88
2023/04/30 12:45:33;;;;;;;4.63;1.10;;;;;;;;;;5014066;28;20152;-89
2023/04/30 12:48:00;;;;;;;5.78;1.17;;;;;;;;;;5013887;28;20049;-90
2023/04/30 12:50:28;;;;;;;2.65;0.80;;;;;;;;;;5014060;28;20137;-90
2023/04/30 12:52:56;;;;;;;5.45;0.88;;;;;;;;;;5014181;28;20046;-88
2023/04/30 12:55:23;;;;;;;2.00;0.60;;;;;;;;;;5013135;28;20061;-90
2023/04/30 12:58:07;;;;;;;1.70;0.93;;;;;;;;;;5014247;28;20049;-89
2023/04/30 13:00:44;;;;;;;2.85;0.75;;;;;;;;;;5014997;28;20418;-90
2023/04/30 13:03:12;;;;;;;1.85;0.90;;;;;;;;;;5013646;28;20053;-89
2023/04/30 13:05:45;;;;;;;0.77;0.70;;;;;;;;;;5013640;28;20049;-88
2023/04/30 13:08:13;;;;;;;1.30;0.88;;;;;;;;;;5013856;28;20053;-90
2023/04/30 13:10:40;;;;;;;2.33;0.63;;;;;;;;;;5014700;28;20050;-88
2023/04/30 13:13:08;;;;;;;3.65;0.70;;;;;;;;;;5013543;28;20058;-89
2023/04/30 13:15:35;;;;;;;2.33;0.70;;;;;;;;;;5012931;28;20050;-90
2023/04/30 13:18:02;;;;;;;1.25;0.50;;;;;;;;;;5013738;28;20057;-89
2023/04/30 13:20:30;;;;;;;1.83;0.93;;;;;;;;;;5013641;28;20572;-90
2023/04/30 13:22:57;;;;;;;0.80;0.50;;;;;;;;;;5013316;28;20502;-90
2023/04/30 13:25:24;;;;;;;1.45;0.88;;;;;;;;;;5017543;28;20146;-89
2023/04/30 13:27:52;;;;;;;3.08;0.77;;;;;;;;;;5013593;28;20176;-89
2023/04/30 13:30:19;;;;;;;1.73;0.75;;;;;;;;;;5013696;28;20054;-90
2023/04/30 13:32:46;;;;;;;1.77;0.65;;;;;;;;;;5013481;28;20050;-90
2023/04/30 13:35:13;;;;;;;1.63;0.90;;;;;;;;;;5014447;28;20502;-92
2023/04/30 13:37:41;;;;;;;1.80;0.70;;;;;;;;;;5013388;28;20414;-90
2023/04/30 13:40:09;;;;;;;1.00;0.68;;;;;;;;;;5013360;28;20045;-90
2023/04/30 13:42:41;;;;;;;2.67;0.70;;;;;;;;;;5013423;28;20056;-90
2023/04/30 13:45:09;;;;;;;2.25;0.73;;;;;;;;;;5013306;28;20412;-90
2023/04/30 13:47:37;;;;;;;1.42;0.80;;;;;;;;;;5013540;28;20062;-89
2023/04/30 13:50:04;;;;;;;2.22;1.00;;;;;;;;;;5013204;28;20283;-87
2023/04/30 13:52:32;;;;;;;3.65;1.25;;;;;;;;;;5017856;28;20050;-89
2023/04/30 13:54:59;;;;;;;2.83;1.17;;;;;;;;;;5014528;28;20113;-88
2023/04/30 13:57:28;;;;;;;3.00;0.95;;;;;;;;;;5012860;28;20045;-91
2023/04/30 13:59:56;;;;;;;5.13;1.30;;;;;;;;;;5013386;28;20073;-88
2023/04/30 14:02:27;;;;;;;1.98;0.90;;;;;;;;;;5014035;28;20053;-91
2023/04/30 14:04:54;;;;;;;2.47;0.95;;;;;;;;;;5013160;28;20483;-90
2023/04/30 14:07:32;;;;;;;1.38;0.85;;;;;;;;;;5016211;28;20077;-89
2023/04/30 14:09:59;;;;;;;2.33;0.68;;;;;;;;;;5014529;28;20076;-88
2023/04/30 14:12:29;;;;;;;2.53;1.05;;;;;;;;;;5013674;28;20581;-89
2023/04/30 14:14:56;;;;;;;1.00;0.90;;;;;;;;;;5013024;28;20418;-89
2023/04/30 14:17:25;;;;;;;6.28;1.10;;;;;;;;;;5011436;28;20060;-87
2023/04/30 14:19:55;;;;;;;3.13;0.90;;;;;;;;;;5012974;28;20057;-89
2023/04/30 14:22:23;;;;;;;3.22;1.05;;;;;;;;;;5012961;28;20050;-88
2023/04/30 14:24:51;;;;;;;1.63;0.90;;;;;;;;;;5013541;28;20123;-89
2023/04/30 14:27:20;;;;;;;3.50;0.93;;;;;;;;;;5012574;28;20137;-89
2023/04/30 14:29:47;;;;;;;2.38;1.17;;;;;;;;;;5012743;28;20054;-89
2023/04/30 14:32:14;;;;;;;2.55;1.00;;;;;;;;;;5012893;28;20380;-90
2023/04/30 14:34:42;;;;;;;1.45;1.02;;;;;;;;;;5012973;28;20524;-90
2023/04/30 14:37:09;;;;;;;2.55;1.00;;;;;;;;;;5012757;28;20057;-91
2023/04/30 14:39:36;;;;;;;1.90;0.90;;;;;;;;;;5013300;28;20052;-90